Racecast

Nathan Loomis

Telluride (CO) · 12 · CO D3A2A · Compare head to head

Athlete ratingi 126.1 2013 TF season
Best race 127.4 TF
Races 52
Seasons 5 2009 — 2013

RankedNation #2334·CO #83·CO D3A #27·Team #2 ?

Speed rating — all races

Cross Country

XC speed rating

2012 XC 114.8

Telluride (CO) · Grade 12

Date Meet Event Result Place Ratingi Difficultyi PR/SR Flags
2012-10-27 Norris Penrose Event Center 5000m 19:24.8 31st · 4th on team 112.9 +4.3% ★CR CSR
2012-10-17 Confluence Park 5000m 17:04.3 6th · 3rd on team 121.1 -2.1% ★PR ★CR SR CSR RSR
2012-10-06 Aspen High School 5000m 20:28.4 22nd · 4th on team 116.4 +14.0% CSR
2012-09-22 Hotchkiss Althletic Fields 5000m 20:08 14th · 2nd on team 114.5 +9.4% CSR
2012-09-15 Gunnison Community School 5000m 18:19.9 9th · 3rd on team 117.8 +2.0% ★CR SR CSR
2012-09-08 Lyons Middle/High School 5000m 18:22 17th · 3rd on team 118.2 +2.3% ★CR SR CSR RSR
2012-08-31 Norris Penrose Event Center 5000m 21:22 85th · 3rd on team 102.9 +4.3% CR SR CSR RSR

2011 XC 115.3

Telluride (CO) · Grade 11

Date Meet Event Result Place Ratingi Difficultyi PR/SR Flags
2011-11-19 Toka Sticks Golf Course 5000m 18:24.3 270th · 2nd on team 114.4 -1.2% ★CR CSR
2011-10-29 Arapahoe County Fairgrounds 5000m 18:27.4 17th · 2nd on team 119.2 +4.0% ★CR CSR
2011-10-19 Confluence Park 5000m 17:26.3 6th · 2nd on team 119.1 -2.1% PR CR SR CSR
2011-10-08 Aspen High School 5000m 19:48 10th · 1st on team 120.5 +14.0% ★CR SR CSR RSR
2011-09-24 Hotchkiss Althletic Fields 5000m 22:30 24th · 6th on team 103.1 +9.4% SR CSR RSR

2010 XC 116.5

Telluride (CO) · Grade 10

Date Meet Event Result Place Ratingi Difficultyi PR/SR Flags
2010-10-23 Montezuma County Fairgrounds 5000m 19:16 5th · 2nd on team 117.1 +6.9%
2010-10-09 Montezuma County Fairgrounds 5000m 18:50 19th · 3rd on team 119.9 +6.9% ★CR R CSR RSR
2010-09-25 Hotchkiss Althletic Fields 5000m 19:39 8th · 3rd on team 117.6 +9.4% CSR RSR
2010-09-18 Gunnison Community School 5000m 18:46.6 11th · 2nd on team 115.7 +2.0% PR CR SR CSR RSR
2010-09-04 Arapahoe County Fairgrounds 5000m 19:36.9 56th · 4th on team 112.3 +4.0% PR CR SR CSR RSR

2009 XC 117.7

Telluride (CO) · Grade 9

Date Meet Event Result Place Ratingi Difficultyi PR/SR Flags
2009-09-25 Hotchkiss Althletic Fields 5000m 19:39 8th · 3rd on team 117.7 +9.4% PR CR R SR CSR RSR

Track & Field

TF speed rating

2013 TF 124.1

Telluride (CO) · Grade 12

Date Meet Event Result Place Ratingi Difficultyi PR/SR Flags
2013-05-17 CHSAA State Track & Field Championships 3200m 10:24.66 12th · 2nd on team 120.9 +2.1% SR RSR
2013-05-17 CHSAA State Track & Field Championships 1600m 4:33.39 4th · 1st on team 127.4 +2.1% ★PR ★R SR RSR

2012 TF 116.1

Telluride (CO) · Grade 11

Date Meet Event Result Place Ratingi Difficultyi PR/SR Flags
2012-05-17 Colorado State Track and Field Championsips 1600m 4:44.09 7th · 2nd on team 121.6 +2.1% PR R SR RSR
2012-05-17 Colorado State Track and Field Championsips 3200m 10:21.54 4th · 2nd on team 120.6 +2.1% ★PR SR
2012-05-10 2A/3A/4A Western Slope Leagues Meet 2012 3200m 10:48.86 4th · 2nd on team 115.8 +2.1%
2012-05-05 Grand Junction Tiger Invitational 2012 1600m 4:48.43 15th · 2nd on team 120.1 +2.1% SR
2012-05-05 Grand Junction Tiger Invitational 2012 3200m 10:42.54 16th · 3rd on team 117.1 +2.1% SR
2012-04-28 Montrose Invitational 2012 3200m 11:13.04 10th · 2nd on team 113.2 +3.5% SR
2012-04-28 Montrose Invitational 2012 1600m 5:07.93 11th · 2nd on team 113.8 +3.5%
2012-04-21 Gunnison Invitational 2012 1600m 4:53.34 7th · 1st on team 121.5 +5.2% R SR RSR
2012-04-21 Gunnison Invitational 2012 800m 2:11.33 6th · 2nd on team 120.1 +5.2% SR
2012-04-07 Frank Woodburn Track Meet 2012 400m 55.83 12th · 2nd on team +2.1% ★PR SR
2012-04-07 Frank Woodburn Track Meet 2012 1600m 4:59.79 13th · 3rd on team 115.0 +2.1% SR
2012-03-31 Cedaredge Invitational 2012 1600m 5:04.35 9th · 2nd on team 115.6 +4.0% SR RSR
2012-03-31 Cedaredge Invitational 2012 3200m 11:27.78 5th · 1st on team 111.2 +4.0% SR
2012-03-24 Mickey Dunn Invitational 2012 1600m 5:26.2 41st · 2nd on team 105.8 +2.1% SR
2012-03-17 Delta Panther Invite 2012 800m 2:16.13 12th · 2nd on team 114.0 +3.5% SR RSR

2011 TF 118.0

Telluride (CO) · Grade 10

Date Meet Event Result Place Ratingi Difficultyi PR/SR Flags
2011-05-23 Colorado All-Classification State Track Meet 3200m 10:34.34 8th · 2nd on team 117.9 +2.1%
2011-05-23 Colorado All-Classification State Track Meet 1600m 4:49.89 13th · 3rd on team 119.0 +2.1%
2011-05-19 Colorado All-Classification State Track Meet 3200m 10:34.34 8th · 2nd on team 117.1 +2.1% PR SR
2011-05-19 Colorado All-Classification State Track Meet 1600m 4:49.89 13th · 3rd on team 118.8 +2.1%
2011-05-06 Grand Junction Tiger Invitational 2011 1600m 4:44.74 11th · 2nd on team 121.2 +2.1% PR R SR RSR
2011-05-06 Cedaredge Bruin Invitational 2011 800m 2:12.38 6th · 1st on team 117.7 +4.0%
2011-04-29 Montrose Invitational 2011 1600m 4:58.79 12th · 2nd on team 117.1 +3.5%
2011-04-29 Montrose Invitational 2011 3200m 11:00.85 7th · 2nd on team 114.8 +3.5% PR SR
2011-04-02 Warrior Wild West Invitational 2011 800m 2:09.8 7th · 2nd on team 118.0 +2.1% ★PR SR
2011-03-26 Mickey Dunn Invite 1600m 4:50.04 7th · 2nd on team 118.5 +2.1% PR SR RSR
2011-03-19 Delta Panther Invite 400m 58.68 17th · 1st on team +3.5% PR SR
2011-03-19 Delta Panther Invite 200m 25.25 20th · 2nd on team +3.5% ★PR SR

2010 TF 106.6

Telluride (CO) · Grade 9

Date Meet Event Result Place Ratingi Difficultyi PR/SR Flags
2010-05-01 High Altitude Championships 2010 800m 2:27.99 18th · 1st on team 106.6 +5.7% PR SR RSR
2010-04-30 Montrose Invitational 2010 100m 13.54 34th · 2nd on team +3.5% ★PR SR
2010-03-27 Mickey Dunn Invitational 2010 100m 13.74 43rd · 2nd on team +2.1% PR SR
2010-03-27 Mickey Dunn Invitational 2010 200m 27.14 39th · 1st on team +2.1% PR SR
2010-03-27 Mickey Dunn Invitational 2010 400m 59.87 33rd · 1st on team +2.1% PR SR